NY Terminal Aviation Weather Discussion (AFD) - Prepared: 356 PM EDT FRI JUL 3 2015
HIGH PRESSURE OVER THE REGION SLIDES OFFSHORE LATER THIS AFTERNOON. 
A WAVE OF LOW PRESSURE APPROACHES FROM THE MID ATLANTIC STATES 
TONIGHT.

VFR FOR THE REMAINDER OF THE DAY. MODERATE CONFIDENCE IN WIND 
FORECASTS. SEABREEZES HAVE STARTED TO DEVELOP...AND WILL CONTINUE TO 
OVERSPREAD THE TERMINALS THROUGH 21Z.

VFR TONIGHT WITH WINDS DIMINISHING TO LESS THAN 10 KT AT MOST IF NOT 
ALL TERMINALS. 

ON SATURDAY...THERE IS A CHANCE THAT MVFR CONDITIONS WILL DEVELOP IN 
LIGHT RAIN AS LOW PRESSURE PASSES SOUTH OF THE REGION. THIS WILL 
DEPEND ON THE EXACT TRACK OF THE LOW. IF THE LOW IS A BIT FURTHER 
NORTH...THEN MORE WIDESPREAD MVFR CIGS WILL BE POSSIBLE. FOR 
NOW...NOT ENOUGH CONFIDENCE AT THIS TIME TO INCLUDE IN THE TAF.

5 Day General Aviation Outlook:

.OUTLOOK FOR 18Z SATURDAY THROUGH WEDNESDAY...
.SATURDAY AFTERNOON...MVFR POSSIBLE IN RAIN. E/NE WINDS
10-15G20KT...BECOMING N LATE.
.SATURDAY NIGHT-TUESDAY MORNING...VFR. NORTHERLY WINDS
DIMINISHING SAT EVE.
.TUESDAY AFTERNOON-WEDNESDAY...CHANCE OF MVFR IN SHOWERS AND
THUNDERSTORMS.


NY Metro Terminal Aviation Weather Summary: (Explanation of Color Coding)
NOTE: All Wind Directions are TRUE (add 13 degrees for magnetic directions). Tail and Crosswind Calculations do account for the magnetic deviation of runways.

Click on the Airport Below for Specific Information at that Terminal

TAF Overview JFK TAF LGA TAF EWR TAF TEB TAF HPN TAF ISP TAF

Jump to AirSpace Impacts Section Condensed "lite" version of SPA page
**************************************************************************************
KJFK Terminal Weather: (Wind Directions Are True, Except Where Noted, ADD 13 degrees for Magnetic)

5MIN KJFK 032015Z 19014KT 10SM CLR 26/14 A2997 -30 48 
     1200 200/14 RMK AO2
5MIN KJFK 032010Z 19013KT 10SM CLR 26/13 A2997 -30 44 
     1300 200/13 RMK AO2
********************************************
****        MAGNETIC DIRECTIONS         ****
********************************************
KJFK 07/03/2015 20:21:32 GMT 190 11 G17KT
KJFK 07/03/2015 20:19:32 GMT 180 14 KT
KJFK 07/03/2015 20:17:32 GMT 180 14 KT
KJFK 07/03/2015 20:15:32 GMT 190 14 KT
KJFK 07/03/2015 20:13:32 GMT 190 13 KT
KJFK 07/03/2015 20:11:32 GMT 190 11 KT
KJFK 07/03/2015 20:09:32 GMT 180 14 KT
KJFK 07/03/2015 20:07:32 GMT 190 13 KT
KJFK 07/03/2015 20:05:32 GMT 200 11 KT
KJFK 07/03/2015 20:03:32 GMT 200 10 KT
SAUS70 KJFK 032000 RRF
METAR KJFK 031951Z 21009KT 10SM FEW065 BKN250 27/11 A2997 RMK AO2 SLP148
     T02720106
FTNA35 KJFK 031940 RRB
KJFK 031930Z 0320/0424 20012KT P6SM BKN250
     FM040200 14005KT P6SM BKN200
     FM040800 08007KT P6SM OVC100
     FM041400 06010G16KT P6SM SCT035 OVC060
     PROB30 0414/0420 5SM -RA BKN035
KJFK FCSTER COMMENTS: NO UNSCHEDULED AMENDMENTS EXPECTED. 

jfk

JFK Hourly Forecast Temperature (C)

JFK Hourly TMPS
**************************************************************************************
KLGA Terminal Weather: (Wind Directions Are True, Except Where Noted, ADD 13 degrees for Magnetic)

5MIN KLGA 032015Z 05005KT 10SM CLR 27/11 A2995 0 36 
     1400 060/05 RMK AO2
5MIN KLGA 032010Z 04006KT 10SM CLR 27/11 A2995 0 36 
     1400 050/06 RMK AO2
********************************************
****        MAGNETIC DIRECTIONS         ****
********************************************
KLGA 07/03/2015 20:22:03 GMT 060 09 KT
KLGA 07/03/2015 20:19:54 GMT 070 07 KT
KLGA 07/03/2015 20:18:04 GMT 070 08 KT
KLGA 07/03/2015 20:15:53 GMT 080 09 KT
KLGA 07/03/2015 20:14:04 GMT 080 12 KT
KLGA 07/03/2015 20:11:53 GMT 060 07 KT
KLGA 07/03/2015 20:09:53 GMT 050 06 KT
KLGA 07/03/2015 20:07:54 GMT 070 11 KT
KLGA 07/03/2015 20:05:54 GMT 080 12 KT
KLGA 07/03/2015 20:04:04 GMT 080 12 KT
SAUS70 KLGA 032000
METAR KLGA 031951Z 00000KT 10SM FEW065 BKN250 27/11 A2995 RMK AO2 SLP143
     T02670106
FTUS80 KLGA 031933 AAB
KLGA 031930Z 0320/0418 VRB06KT P6SM BKN250
     FM032100 18010KT P6SM SCT250
     FM040200 15005KT P6SM BKN200
     FM040800 08007KT P6SM OVC100
     FM041400 06010G14KT P6SM SCT035 OVC060 PROB30 0414/0418 5SM
      -RA BKN035
KLGA FCSTER COMMENTS: TIMING OF THE SEABREEZE COULD BE OFF BY AN 
HOUR. 

lga


**************************************************************************************

KEWR Terminal Weather: (Wind Directions Are True, Except Where Noted, ADD 13 degrees for Magnetic)

5MIN KEWR 032015Z 00000KT 10SM FEW065 28/11 A2995 0 35 
     1500 000/00 RMK AO2
5MIN KEWR 032010Z 25007KT 10SM FEW065 28/12 A2995 0 35 
     1600 270/07 RMK AO2
********************************************
****        MAGNETIC DIRECTIONS         ****
********************************************
KEWR 07/03/2015 20:21:12 GMT 310 04 KT
KEWR 07/03/2015 20:19:12 GMT 310 05 KT
KEWR 07/03/2015 20:17:12 GMT 290 06 KT
KEWR 07/03/2015 20:15:12 GMT 280 04 KT
KEWR 07/03/2015 20:14:12 GMT 280 07 KT
KEWR 07/03/2015 20:11:12 GMT 310 09 KT
KEWR 07/03/2015 20:09:12 GMT 310 07 KT
KEWR 07/03/2015 20:07:50 GMT 310 09 KT
KEWR 07/03/2015 20:05:50 GMT 320 07 KT
KEWR 07/03/2015 20:03:50 GMT 320 08 KT
SAUS70 KEWR 032000
METAR KEWR 031951Z VRB04KT 10SM FEW060 BKN250 28/12 A2995 RMK AO2 SLP143
     T02780117
FTUS80 KEWR 031933 AAA
KEWR 031930Z 0320/0424 18006KT P6SM BKN250
     FM032100 16008KT P6SM BKN250
     FM040800 08005KT P6SM OVC100
     FM041300 04010G16KT P6SM SCT035 OVC060 PROB30 0413/0419 5SM
      -RA BKN035
KEWR FCSTER COMMENTS: TIMING OF THE SEABREEZE COULD BE OFF BY AN 
HOUR. 

ewr
Afternoon EWR Haze Potential Forecast: KEWR Haze Forecast Not Available at This Time
IS NOT AVAILABLE AT THIS TIME


******************************************************************************

KTEB Terminal Weather:
SAUS80 KTEB 032000
METAR KTEB 031951Z 31005KT 10SM CLR 28/11 A2995 RMK AO2 SLP141
     T02780111
FTUS80 KTEB 031933 AAB
KTEB 031930Z 0320/0418 VRB05KT P6SM BKN250
     FM032100 18008KT P6SM BKN250
     FM040200 15005KT P6SM BKN200
     FM040800 09005KT P6SM OVC100
     FM041300 06010G16KT P6SM SCT035 OVC060 PROB30 0413/0418 5SM
      -RA BKN035
KTEB FCSTER COMMENTS: TIMING OF THE SEABREEZE COULD BE OFF BY AN 
HOUR. 

teb

 


**************************************************************************************

KHPN Terminal Weather:
SAUS70 KHPN 032000 RRA
METAR KHPN 031956Z 31005KT 10SM CLR 26/08 A2997 RMK AO2 SLP145 T02560083
     $
FTUS80 KHPN 031933 AAA
KHPN 031930Z 0320/0418 VRB05KT P6SM SCT250
     FM032100 17008KT P6SM BKN250
     FM040100 VRB04KT P6SM BKN200
     FM040800 06005KT P6SM OVC100
     FM041400 06010KT P6SM SCT040 OVC080 AMD NOT SKED
KHPN FCSTER COMMENTS: TIMING OF THE SEABREEZE COULD BE OFF BY AN 
HOUR. 

HPN


******************************************************************************

KISP Terminal Weather:
SAUS70 KISP 032000 RRB
METAR KISP 031956Z 35009KT 10SM FEW050 BKN270 26/09 A2996 RMK AO2 SLP144
     T02610089
FTUS80 KISP 031933 AAA
KISP 031930Z 0320/0418 VRB06KT P6SM BKN250
     FM032100 19009KT P6SM SCT250
     FM040200 VRB03KT P6SM BKN200
     FM040900 09006KT P6SM OVC100
     FM041500 06010G16KT P6SM SCT035 OVC060 PROB30 0415/0418 5SM
      -RA BKN035
KISP FCSTER COMMENTS: TIMING OF THE SEABREEZE COULD BE OFF BY AN 
HOUR. DIRECTION MAY BE 20-30 DEGREES ON EITHER SIDE OF FORECAST.

ISP

 


ZNY SWAP Season Information

(ZNY SWAP STATEMENT) (Click for PDF File) (ZNY BRIEFING) (Click for PDF File)

*******************************************************
***        NY AIR ROUTE TRAFFIC CONTROL CENTER      ***
***                DAILY SWAP STATEMENT             ***
*******************************************************
- KNYC 021356
WRKSWP
FRIDAY,  JULY 3, 2015
SWAP IS POSSIBLE ANYTIME AFTER 18Z.
SCT TS WILL FORM IN ERN ZID/WRN ZDC. TS WILL MOV NEWD INTO SRN ZOB 
AFT 20-21Z AND POSSIBLY SWRN ZNY AFT 23Z. VARYING IMPACTS TO J80 
THRU J75 ARE PSBL. SCTD TS ARE ALSO LIKELY FROM SRN VA TO COASTAL NC 
ESPECIALLY AFT 20-21Z. IMPACTS TO WHITE/WAVEY DEPARTURES ARE PSBL 
OUTSIDE OF ZNY AIRSPACE.

ADDT'L INFO: 
AZEZU-PAEPR-HANRI(L453-M201):  IMAPCTS POSSIBLE. 
DITCH: NO IMPACTS EXPECTED. 
EAST GATES:   NO IMPACTS EXPECTED.
TOMORROW MORNINGS SWAP OUTLOOK:  SWAP IS POSSIBLE.

$$
KS

N90 AirSpace Impacts

N90 ZNY Gate TSTM Forecast    SWAP Day One Forecast

SWAP Day One Forecast    SWAP Day Two Outlook

National Collaborative Convective Forecast Product (CCFP) Forecasts (Mar-Oct)

CAWS - Collaborative Aviation Weather Statement


Vertical Wind Profile
Untitled Document